sensor_id;sensor_type;location;lat;lon;timestamp;P1;durP1;ratioP1;P2;durP2;ratioP2
1106;SDS011;540;49.448;8.612;2024-03-22T00:01:46;10.80;;;7.75;;
1106;SDS011;540;49.448;8.612;2024-03-22T00:04:14;9.10;;;6.97;;
1106;SDS011;540;49.448;8.612;2024-03-22T00:06:40;11.88;;;7.80;;
1106;SDS011;540;49.448;8.612;2024-03-22T00:09:08;9.57;;;7.40;;
1106;SDS011;540;49.448;8.612;2024-03-22T00:11:34;9.13;;;6.95;;
1106;SDS011;540;49.448;8.612;2024-03-22T00:14:02;11.35;;;7.30;;
1106;SDS011;540;49.448;8.612;2024-03-22T00:16:29;10.77;;;7.22;;
1106;SDS011;540;49.448;8.612;2024-03-22T00:18:55;9.80;;;6.93;;
1106;SDS011;540;49.448;8.612;2024-03-22T00:21:21;9.43;;;6.97;;
1106;SDS011;540;49.448;8.612;2024-03-22T00:23:49;8.18;;;6.35;;
1106;SDS011;540;49.448;8.612;2024-03-22T00:26:15;10.93;;;7.18;;
1106;SDS011;540;49.448;8.612;2024-03-22T00:28:42;10.50;;;6.88;;
1106;SDS011;540;49.448;8.612;2024-03-22T00:31:09;10.57;;;8.20;;
1106;SDS011;540;49.448;8.612;2024-03-22T00:33:36;12.00;;;8.90;;
1106;SDS011;540;49.448;8.612;2024-03-22T00:36:02;13.60;;;8.95;;
1106;SDS011;540;49.448;8.612;2024-03-22T00:38:29;16.80;;;9.45;;
1106;SDS011;540;49.448;8.612;2024-03-22T00:40:55;14.38;;;9.13;;
1106;SDS011;540;49.448;8.612;2024-03-22T00:43:22;12.32;;;8.68;;
1106;SDS011;540;49.448;8.612;2024-03-22T00:45:48;15.48;;;9.75;;
1106;SDS011;540;49.448;8.612;2024-03-22T00:48:16;13.93;;;9.50;;
1106;SDS011;540;49.448;8.612;2024-03-22T00:50:43;12.68;;;9.13;;
1106;SDS011;540;49.448;8.612;2024-03-22T00:53:10;14.30;;;9.18;;
1106;SDS011;540;49.448;8.612;2024-03-22T00:55:37;13.10;;;9.45;;
1106;SDS011;540;49.448;8.612;2024-03-22T00:58:03;18.27;;;10.05;;
1106;SDS011;540;49.448;8.612;2024-03-22T01:00:29;12.23;;;9.57;;
1106;SDS011;540;49.448;8.612;2024-03-22T01:02:56;14.30;;;8.70;;
1106;SDS011;540;49.448;8.612;2024-03-22T01:05:23;11.95;;;9.05;;
1106;SDS011;540;49.448;8.612;2024-03-22T01:07:51;13.85;;;10.02;;
1106;SDS011;540;49.448;8.612;2024-03-22T01:10:17;14.88;;;9.35;;
1106;SDS011;540;49.448;8.612;2024-03-22T01:12:44;12.57;;;10.05;;
1106;SDS011;540;49.448;8.612;2024-03-22T01:15:10;12.43;;;9.43;;
1106;SDS011;540;49.448;8.612;2024-03-22T01:17:37;15.57;;;10.02;;
1106;SDS011;540;49.448;8.612;2024-03-22T01:20:03;12.93;;;9.20;;
1106;SDS011;540;49.448;8.612;2024-03-22T01:22:32;13.43;;;8.85;;
1106;SDS011;540;49.448;8.612;2024-03-22T01:24:58;12.18;;;8.68;;
1106;SDS011;540;49.448;8.612;2024-03-22T01:27:25;11.10;;;8.75;;
1106;SDS011;540;49.448;8.612;2024-03-22T01:29:51;13.38;;;9.10;;
1106;SDS011;540;49.448;8.612;2024-03-22T01:32:18;12.00;;;8.27;;
1106;SDS011;540;49.448;8.612;2024-03-22T01:34:43;13.40;;;8.60;;
1106;SDS011;540;49.448;8.612;2024-03-22T01:37:10;10.43;;;8.30;;
1106;SDS011;540;49.448;8.612;2024-03-22T01:39:38;12.45;;;8.48;;
1106;SDS011;540;49.448;8.612;2024-03-22T01:42:05;13.65;;;8.38;;
1106;SDS011;540;49.448;8.612;2024-03-22T01:44:31;13.85;;;8.77;;
1106;SDS011;540;49.448;8.612;2024-03-22T01:46:58;12.15;;;8.45;;
1106;SDS011;540;49.448;8.612;2024-03-22T01:49:25;9.90;;;8.10;;
1106;SDS011;540;49.448;8.612;2024-03-22T01:51:52;13.50;;;8.73;;
1106;SDS011;540;49.448;8.612;2024-03-22T01:54:19;10.48;;;7.53;;
1106;SDS011;540;49.448;8.612;2024-03-22T01:56:48;10.15;;;7.25;;
1106;SDS011;540;49.448;8.612;2024-03-22T01:59:14;11.70;;;7.45;;
1106;SDS011;540;49.448;8.612;2024-03-22T02:01:41;10.95;;;7.53;;
1106;SDS011;540;49.448;8.612;2024-03-22T02:04:07;10.98;;;8.00;;
1106;SDS011;540;49.448;8.612;2024-03-22T02:06:35;10.45;;;7.47;;
1106;SDS011;540;49.448;8.612;2024-03-22T02:09:01;10.40;;;7.35;;
1106;SDS011;540;49.448;8.612;2024-03-22T02:11:29;10.43;;;7.93;;
1106;SDS011;540;49.448;8.612;2024-03-22T02:13:57;12.88;;;7.88;;
1106;SDS011;540;49.448;8.612;2024-03-22T02:16:24;9.07;;;7.25;;
1106;SDS011;540;49.448;8.612;2024-03-22T02:18:50;10.20;;;7.40;;
1106;SDS011;540;49.448;8.612;2024-03-22T02:21:17;10.40;;;7.45;;
1106;SDS011;540;49.448;8.612;2024-03-22T02:23:44;12.88;;;7.88;;
1106;SDS011;540;49.448;8.612;2024-03-22T02:26:11;10.52;;;7.13;;
1106;SDS011;540;49.448;8.612;2024-03-22T02:28:37;10.75;;;6.60;;
1106;SDS011;540;49.448;8.612;2024-03-22T02:31:04;11.35;;;7.68;;
1106;SDS011;540;49.448;8.612;2024-03-22T02:33:30;10.73;;;7.35;;
1106;SDS011;540;49.448;8.612;2024-03-22T02:35:58;11.38;;;8.02;;
1106;SDS011;540;49.448;8.612;2024-03-22T02:38:24;10.23;;;7.00;;
1106;SDS011;540;49.448;8.612;2024-03-22T02:40:52;11.32;;;7.75;;
1106;SDS011;540;49.448;8.612;2024-03-22T02:43:19;13.88;;;8.93;;
1106;SDS011;540;49.448;8.612;2024-03-22T02:45:46;14.30;;;8.63;;
1106;SDS011;540;49.448;8.612;2024-03-22T02:48:13;12.00;;;8.65;;
1106;SDS011;540;49.448;8.612;2024-03-22T02:50:40;11.70;;;7.85;;
1106;SDS011;540;49.448;8.612;2024-03-22T02:53:06;11.60;;;7.85;;
1106;SDS011;540;49.448;8.612;2024-03-22T02:55:36;13.05;;;8.23;;
1106;SDS011;540;49.448;8.612;2024-03-22T02:58:04;11.13;;;7.72;;
1106;SDS011;540;49.448;8.612;2024-03-22T03:00:31;14.75;;;8.02;;
1106;SDS011;540;49.448;8.612;2024-03-22T03:02:58;17.20;;;9.13;;
1106;SDS011;540;49.448;8.612;2024-03-22T03:05:25;13.38;;;8.52;;
1106;SDS011;540;49.448;8.612;2024-03-22T03:07:51;11.88;;;7.82;;
1106;SDS011;540;49.448;8.612;2024-03-22T03:10:18;13.73;;;11.13;;
1106;SDS011;540;49.448;8.612;2024-03-22T03:12:44;15.75;;;12.38;;
1106;SDS011;540;49.448;8.612;2024-03-22T03:15:12;13.57;;;9.13;;
1106;SDS011;540;49.448;8.612;2024-03-22T03:17:38;11.80;;;8.50;;
1106;SDS011;540;49.448;8.612;2024-03-22T03:20:05;15.02;;;9.50;;
1106;SDS011;540;49.448;8.612;2024-03-22T03:22:33;12.85;;;8.98;;
1106;SDS011;540;49.448;8.612;2024-03-22T03:25:00;11.35;;;8.50;;
1106;SDS011;540;49.448;8.612;2024-03-22T03:27:26;11.10;;;7.68;;
1106;SDS011;540;49.448;8.612;2024-03-22T03:29:53;11.73;;;7.97;;
1106;SDS011;540;49.448;8.612;2024-03-22T03:32:20;12.40;;;8.10;;
1106;SDS011;540;49.448;8.612;2024-03-22T03:34:47;10.88;;;8.15;;
1106;SDS011;540;49.448;8.612;2024-03-22T03:37:13;18.73;;;9.27;;
1106;SDS011;540;49.448;8.612;2024-03-22T03:39:41;12.60;;;8.63;;
1106;SDS011;540;49.448;8.612;2024-03-22T03:42:06;13.88;;;9.07;;
1106;SDS011;540;49.448;8.612;2024-03-22T03:44:33;13.98;;;10.40;;
1106;SDS011;540;49.448;8.612;2024-03-22T03:46:59;17.60;;;10.05;;
1106;SDS011;540;49.448;8.612;2024-03-22T03:49:28;12.45;;;9.65;;
1106;SDS011;540;49.448;8.612;2024-03-22T03:51:54;15.45;;;9.88;;
1106;SDS011;540;49.448;8.612;2024-03-22T03:54:21;15.65;;;10.15;;
1106;SDS011;540;49.448;8.612;2024-03-22T03:56:47;13.75;;;10.32;;
1106;SDS011;540;49.448;8.612;2024-03-22T03:59:13;13.25;;;10.35;;
1106;SDS011;540;49.448;8.612;2024-03-22T04:01:39;16.77;;;10.43;;
1106;SDS011;540;49.448;8.612;2024-03-22T04:04:06;12.73;;;8.50;;
1106;SDS011;540;49.448;8.612;2024-03-22T04:06:33;14.60;;;10.48;;
1106;SDS011;540;49.448;8.612;2024-03-22T04:09:00;14.82;;;10.80;;
1106;SDS011;540;49.448;8.612;2024-03-22T04:11:28;14.07;;;10.45;;
1106;SDS011;540;49.448;8.612;2024-03-22T04:13:55;17.65;;;10.68;;
1106;SDS011;540;49.448;8.612;2024-03-22T04:16:20;16.75;;;10.95;;
1106;SDS011;540;49.448;8.612;2024-03-22T04:18:47;14.32;;;10.10;;
1106;SDS011;540;49.448;8.612;2024-03-22T04:21:13;18.48;;;11.50;;
1106;SDS011;540;49.448;8.612;2024-03-22T04:23:42;16.77;;;10.68;;
1106;SDS011;540;49.448;8.612;2024-03-22T04:26:08;15.43;;;9.90;;
1106;SDS011;540;49.448;8.612;2024-03-22T04:28:35;14.85;;;9.90;;
1106;SDS011;540;49.448;8.612;2024-03-22T04:31:02;16.95;;;10.15;;
1106;SDS011;540;49.448;8.612;2024-03-22T04:33:30;17.25;;;11.15;;
1106;SDS011;540;49.448;8.612;2024-03-22T04:35:59;18.30;;;11.00;;
1106;SDS011;540;49.448;8.612;2024-03-22T04:38:27;14.45;;;10.23;;
1106;SDS011;540;49.448;8.612;2024-03-22T04:40:55;15.75;;;10.18;;
1106;SDS011;540;49.448;8.612;2024-03-22T04:43:23;15.52;;;10.80;;
1106;SDS011;540;49.448;8.612;2024-03-22T04:45:50;14.30;;;10.20;;
1106;SDS011;540;49.448;8.612;2024-03-22T04:48:17;18.75;;;10.38;;
1106;SDS011;540;49.448;8.612;2024-03-22T04:50:44;15.45;;;10.13;;
1106;SDS011;540;49.448;8.612;2024-03-22T04:53:13;13.48;;;10.55;;
1106;SDS011;540;49.448;8.612;2024-03-22T04:55:39;14.23;;;9.93;;
1106;SDS011;540;49.448;8.612;2024-03-22T04:58:11;14.45;;;9.90;;
1106;SDS011;540;49.448;8.612;2024-03-22T05:00:38;15.65;;;9.65;;
1106;SDS011;540;49.448;8.612;2024-03-22T05:03:05;14.95;;;9.93;;
1106;SDS011;540;49.448;8.612;2024-03-22T05:05:31;11.93;;;8.68;;
1106;SDS011;540;49.448;8.612;2024-03-22T05:07:58;13.07;;;9.43;;
1106;SDS011;540;49.448;8.612;2024-03-22T05:10:23;14.55;;;9.30;;
1106;SDS011;540;49.448;8.612;2024-03-22T05:12:50;13.65;;;8.75;;
1106;SDS011;540;49.448;8.612;2024-03-22T05:15:18;13.27;;;8.43;;
1106;SDS011;540;49.448;8.612;2024-03-22T05:17:45;12.10;;;9.20;;
1106;SDS011;540;49.448;8.612;2024-03-22T05:20:11;12.43;;;9.30;;
1106;SDS011;540;49.448;8.612;2024-03-22T05:22:38;13.13;;;9.15;;
1106;SDS011;540;49.448;8.612;2024-03-22T05:25:04;13.15;;;9.30;;
1106;SDS011;540;49.448;8.612;2024-03-22T05:27:32;16.30;;;8.90;;
1106;SDS011;540;49.448;8.612;2024-03-22T05:29:57;12.45;;;8.48;;
1106;SDS011;540;49.448;8.612;2024-03-22T05:32:26;14.50;;;9.10;;
1106;SDS011;540;49.448;8.612;2024-03-22T05:34:52;12.45;;;9.40;;
1106;SDS011;540;49.448;8.612;2024-03-22T05:37:20;19.70;;;9.07;;
1106;SDS011;540;49.448;8.612;2024-03-22T05:39:45;13.80;;;9.48;;
1106;SDS011;540;49.448;8.612;2024-03-22T05:42:13;14.02;;;9.63;;
1106;SDS011;540;49.448;8.612;2024-03-22T05:44:39;14.57;;;10.07;;
1106;SDS011;540;49.448;8.612;2024-03-22T05:47:06;15.10;;;9.95;;
1106;SDS011;540;49.448;8.612;2024-03-22T05:49:33;15.63;;;10.52;;
1106;SDS011;540;49.448;8.612;2024-03-22T05:52:00;17.08;;;11.02;;
1106;SDS011;540;49.448;8.612;2024-03-22T05:54:26;17.77;;;10.40;;
1106;SDS011;540;49.448;8.612;2024-03-22T05:56:53;14.50;;;10.60;;
1106;SDS011;540;49.448;8.612;2024-03-22T05:59:20;16.52;;;12.77;;
1106;SDS011;540;49.448;8.612;2024-03-22T06:01:46;19.33;;;11.52;;
1106;SDS011;540;49.448;8.612;2024-03-22T06:04:12;15.75;;;11.27;;
1106;SDS011;540;49.448;8.612;2024-03-22T06:06:40;15.45;;;10.38;;
1106;SDS011;540;49.448;8.612;2024-03-22T06:09:07;16.25;;;11.20;;
1106;SDS011;540;49.448;8.612;2024-03-22T06:11:36;18.60;;;11.10;;
1106;SDS011;540;49.448;8.612;2024-03-22T06:14:03;16.02;;;11.02;;
1106;SDS011;540;49.448;8.612;2024-03-22T06:16:29;17.08;;;10.98;;
1106;SDS011;540;49.448;8.612;2024-03-22T06:18:56;16.75;;;11.43;;
1106;SDS011;540;49.448;8.612;2024-03-22T06:21:22;17.52;;;12.02;;
1106;SDS011;540;49.448;8.612;2024-03-22T06:23:52;15.75;;;10.77;;
1106;SDS011;540;49.448;8.612;2024-03-22T06:26:18;14.75;;;11.13;;
1106;SDS011;540;49.448;8.612;2024-03-22T06:28:45;17.25;;;12.52;;
1106;SDS011;540;49.448;8.612;2024-03-22T06:31:12;15.23;;;11.70;;
1106;SDS011;540;49.448;8.612;2024-03-22T06:33:38;15.40;;;11.07;;
1106;SDS011;540;49.448;8.612;2024-03-22T06:36:05;14.02;;;10.40;;
1106;SDS011;540;49.448;8.612;2024-03-22T06:38:32;13.90;;;9.82;;
1106;SDS011;540;49.448;8.612;2024-03-22T06:40:59;14.00;;;9.27;;
1106;SDS011;540;49.448;8.612;2024-03-22T06:43:26;12.50;;;8.90;;
1106;SDS011;540;49.448;8.612;2024-03-22T06:45:52;14.43;;;9.18;;
1106;SDS011;540;49.448;8.612;2024-03-22T06:48:19;12.43;;;9.40;;
1106;SDS011;540;49.448;8.612;2024-03-22T06:50:45;11.90;;;8.63;;
1106;SDS011;540;49.448;8.612;2024-03-22T06:53:12;13.73;;;9.23;;
1106;SDS011;540;49.448;8.612;2024-03-22T06:55:38;11.02;;;8.65;;
1106;SDS011;540;49.448;8.612;2024-03-22T06:58:06;10.93;;;8.65;;
1106;SDS011;540;49.448;8.612;2024-03-22T07:00:32;10.80;;;8.95;;
1106;SDS011;540;49.448;8.612;2024-03-22T07:03:00;15.05;;;9.02;;
1106;SDS011;540;49.448;8.612;2024-03-22T07:05:27;16.75;;;9.15;;
1106;SDS011;540;49.448;8.612;2024-03-22T07:07:55;15.85;;;9.23;;
1106;SDS011;540;49.448;8.612;2024-03-22T07:10:22;12.57;;;8.70;;
1106;SDS011;540;49.448;8.612;2024-03-22T07:12:53;12.88;;;8.70;;
1106;SDS011;540;49.448;8.612;2024-03-22T07:15:24;11.48;;;9.55;;
1106;SDS011;540;49.448;8.612;2024-03-22T07:17:51;11.52;;;8.90;;
1106;SDS011;540;49.448;8.612;2024-03-22T07:20:17;12.32;;;8.82;;
1106;SDS011;540;49.448;8.612;2024-03-22T07:22:44;12.45;;;9.93;;
1106;SDS011;540;49.448;8.612;2024-03-22T07:25:10;16.00;;;10.15;;
1106;SDS011;540;49.448;8.612;2024-03-22T07:27:38;11.63;;;8.80;;
1106;SDS011;540;49.448;8.612;2024-03-22T07:30:04;10.07;;;8.30;;
1106;SDS011;540;49.448;8.612;2024-03-22T07:32:33;12.63;;;8.43;;
1106;SDS011;540;49.448;8.612;2024-03-22T07:34:59;11.15;;;8.32;;
1106;SDS011;540;49.448;8.612;2024-03-22T07:37:26;15.80;;;8.52;;
1106;SDS011;540;49.448;8.612;2024-03-22T07:39:52;13.02;;;7.85;;
1106;SDS011;540;49.448;8.612;2024-03-22T07:42:19;9.90;;;7.53;;
1106;SDS011;540;49.448;8.612;2024-03-22T07:44:46;12.82;;;7.70;;
1106;SDS011;540;49.448;8.612;2024-03-22T07:47:13;11.93;;;8.02;;
1106;SDS011;540;49.448;8.612;2024-03-22T07:49:40;10.07;;;7.90;;
1106;SDS011;540;49.448;8.612;2024-03-22T07:52:07;11.25;;;7.65;;
1106;SDS011;540;49.448;8.612;2024-03-22T07:54:34;14.20;;;7.70;;
1106;SDS011;540;49.448;8.612;2024-03-22T07:57:01;13.40;;;7.82;;
1106;SDS011;540;49.448;8.612;2024-03-22T07:59:27;10.35;;;8.10;;
1106;SDS011;540;49.448;8.612;2024-03-22T08:01:54;10.70;;;7.70;;
1106;SDS011;540;49.448;8.612;2024-03-22T08:04:20;10.80;;;7.97;;
1106;SDS011;540;49.448;8.612;2024-03-22T08:06:50;10.75;;;7.50;;
1106;SDS011;540;49.448;8.612;2024-03-22T08:09:16;13.55;;;8.55;;
1106;SDS011;540;49.448;8.612;2024-03-22T08:11:43;12.95;;;8.02;;
1106;SDS011;540;49.448;8.612;2024-03-22T08:14:09;11.88;;;8.02;;
1106;SDS011;540;49.448;8.612;2024-03-22T08:16:36;11.73;;;7.43;;
1106;SDS011;540;49.448;8.612;2024-03-22T08:19:02;11.30;;;8.23;;
1106;SDS011;540;49.448;8.612;2024-03-22T08:21:29;11.10;;;8.07;;
1106;SDS011;540;49.448;8.612;2024-03-22T08:23:56;12.82;;;8.10;;
1106;SDS011;540;49.448;8.612;2024-03-22T08:26:23;11.13;;;8.05;;
1106;SDS011;540;49.448;8.612;2024-03-22T08:28:49;10.48;;;8.07;;
1106;SDS011;540;49.448;8.612;2024-03-22T08:31:16;11.25;;;7.63;;
1106;SDS011;540;49.448;8.612;2024-03-22T08:33:42;13.75;;;8.40;;
1106;SDS011;540;49.448;8.612;2024-03-22T08:36:10;10.77;;;7.80;;
1106;SDS011;540;49.448;8.612;2024-03-22T08:38:35;14.20;;;8.13;;
1106;SDS011;540;49.448;8.612;2024-03-22T08:41:04;9.32;;;7.15;;
1106;SDS011;540;49.448;8.612;2024-03-22T08:43:30;12.05;;;7.65;;
1106;SDS011;540;49.448;8.612;2024-03-22T08:45:57;12.73;;;8.40;;
1106;SDS011;540;49.448;8.612;2024-03-22T08:48:23;10.95;;;8.07;;
1106;SDS011;540;49.448;8.612;2024-03-22T08:50:50;11.23;;;7.70;;
1106;SDS011;540;49.448;8.612;2024-03-22T08:53:16;11.60;;;8.13;;
1106;SDS011;540;49.448;8.612;2024-03-22T08:55:46;11.82;;;8.10;;
1106;SDS011;540;49.448;8.612;2024-03-22T08:58:14;10.88;;;7.22;;
1106;SDS011;540;49.448;8.612;2024-03-22T09:00:43;10.63;;;7.22;;
1106;SDS011;540;49.448;8.612;2024-03-22T09:03:10;12.15;;;7.40;;
1106;SDS011;540;49.448;8.612;2024-03-22T09:05:43;12.88;;;7.63;;
1106;SDS011;540;49.448;8.612;2024-03-22T09:08:10;11.25;;;7.40;;
1106;SDS011;540;49.448;8.612;2024-03-22T09:10:37;11.07;;;7.97;;
1106;SDS011;540;49.448;8.612;2024-03-22T09:13:04;10.88;;;7.60;;
1106;SDS011;540;49.448;8.612;2024-03-22T09:15:33;8.85;;;7.53;;
1106;SDS011;540;49.448;8.612;2024-03-22T09:18:00;9.93;;;7.38;;
1106;SDS011;540;49.448;8.612;2024-03-22T09:20:28;12.48;;;7.80;;
1106;SDS011;540;49.448;8.612;2024-03-22T09:22:55;11.45;;;7.22;;
1106;SDS011;540;49.448;8.612;2024-03-22T09:25:23;12.60;;;7.47;;
1106;SDS011;540;49.448;8.612;2024-03-22T09:27:50;9.43;;;6.75;;
1106;SDS011;540;49.448;8.612;2024-03-22T09:30:18;12.68;;;7.55;;
1106;SDS011;540;49.448;8.612;2024-03-22T09:32:46;9.65;;;6.97;;
1106;SDS011;540;49.448;8.612;2024-03-22T09:35:14;9.98;;;6.53;;
1106;SDS011;540;49.448;8.612;2024-03-22T09:37:40;8.30;;;6.47;;
1106;SDS011;540;49.448;8.612;2024-03-22T09:40:07;10.43;;;6.78;;
1106;SDS011;540;49.448;8.612;2024-03-22T09:42:35;10.80;;;6.32;;
1106;SDS011;540;49.448;8.612;2024-03-22T09:45:05;10.80;;;6.32;;
1106;SDS011;540;49.448;8.612;2024-03-22T09:47:33;10.10;;;6.43;;
1106;SDS011;540;49.448;8.612;2024-03-22T09:50:03;14.95;;;6.53;;
1106;SDS011;540;49.448;8.612;2024-03-22T09:52:33;9.80;;;6.25;;
1106;SDS011;540;49.448;8.612;2024-03-22T09:55:01;10.02;;;6.15;;
1106;SDS011;540;49.448;8.612;2024-03-22T09:57:29;10.35;;;6.53;;
1106;SDS011;540;49.448;8.612;2024-03-22T09:59:58;8.60;;;5.70;;
1106;SDS011;540;49.448;8.612;2024-03-22T10:02:24;8.80;;;5.78;;
1106;SDS011;540;49.448;8.612;2024-03-22T10:04:53;8.75;;;5.82;;
1106;SDS011;540;49.448;8.612;2024-03-22T10:07:24;9.85;;;6.55;;
1106;SDS011;540;49.448;8.612;2024-03-22T10:09:51;9.00;;;6.38;;
1106;SDS011;540;49.448;8.612;2024-03-22T10:12:17;8.35;;;5.70;;
1106;SDS011;540;49.448;8.612;2024-03-22T10:14:45;9.88;;;6.00;;
1106;SDS011;540;49.448;8.612;2024-03-22T10:17:11;8.70;;;5.90;;
1106;SDS011;540;49.448;8.612;2024-03-22T10:19:38;9.45;;;6.57;;
1106;SDS011;540;49.448;8.612;2024-03-22T10:22:05;9.88;;;6.40;;
1106;SDS011;540;49.448;8.612;2024-03-22T10:24:34;9.13;;;6.47;;
1106;SDS011;540;49.448;8.612;2024-03-22T10:27:00;7.15;;;6.32;;
1106;SDS011;540;49.448;8.612;2024-03-22T10:29:28;8.57;;;6.05;;
1106;SDS011;540;49.448;8.612;2024-03-22T10:31:55;9.32;;;6.28;;
1106;SDS011;540;49.448;8.612;2024-03-22T10:34:22;9.90;;;6.55;;
1106;SDS011;540;49.448;8.612;2024-03-22T10:36:50;10.25;;;5.65;;
1106;SDS011;540;49.448;8.612;2024-03-22T10:39:17;7.22;;;5.82;;
1106;SDS011;540;49.448;8.612;2024-03-22T10:41:45;8.43;;;5.47;;
1106;SDS011;540;49.448;8.612;2024-03-22T10:44:13;10.45;;;6.20;;
1106;SDS011;540;49.448;8.612;2024-03-22T10:46:41;9.05;;;5.63;;
1106;SDS011;540;49.448;8.612;2024-03-22T10:49:11;8.75;;;5.43;;
1106;SDS011;540;49.448;8.612;2024-03-22T10:51:40;7.55;;;5.53;;
1106;SDS011;540;49.448;8.612;2024-03-22T10:54:09;7.13;;;5.05;;
1106;SDS011;540;49.448;8.612;2024-03-22T10:56:36;8.85;;;6.15;;
1106;SDS011;540;49.448;8.612;2024-03-22T10:59:05;10.85;;;6.20;;
1106;SDS011;540;49.448;8.612;2024-03-22T11:01:32;8.68;;;5.35;;
1106;SDS011;540;49.448;8.612;2024-03-22T11:04:04;7.60;;;5.25;;
1106;SDS011;540;49.448;8.612;2024-03-22T11:06:35;7.18;;;5.25;;
1106;SDS011;540;49.448;8.612;2024-03-22T11:09:02;8.20;;;5.20;;
1106;SDS011;540;49.448;8.612;2024-03-22T11:11:29;6.82;;;5.05;;
1106;SDS011;540;49.448;8.612;2024-03-22T11:13:56;5.95;;;4.70;;
1106;SDS011;540;49.448;8.612;2024-03-22T11:16:24;6.03;;;4.63;;
1106;SDS011;540;49.448;8.612;2024-03-22T11:18:51;5.45;;;4.50;;
1106;SDS011;540;49.448;8.612;2024-03-22T11:21:17;7.53;;;4.70;;
1106;SDS011;540;49.448;8.612;2024-03-22T11:23:45;6.25;;;4.50;;
1106;SDS011;540;49.448;8.612;2024-03-22T11:26:11;7.05;;;4.38;;
1106;SDS011;540;49.448;8.612;2024-03-22T11:28:38;8.60;;;4.40;;
1106;SDS011;540;49.448;8.612;2024-03-22T11:31:04;4.88;;;4.18;;
1106;SDS011;540;49.448;8.612;2024-03-22T11:33:33;4.93;;;4.07;;
1106;SDS011;540;49.448;8.612;2024-03-22T11:35:59;5.15;;;3.95;;
1106;SDS011;540;49.448;8.612;2024-03-22T11:38:25;7.82;;;4.43;;
1106;SDS011;540;49.448;8.612;2024-03-22T11:40:52;6.82;;;4.20;;
1106;SDS011;540;49.448;8.612;2024-03-22T11:43:20;8.02;;;4.13;;
1106;SDS011;540;49.448;8.612;2024-03-22T11:45:46;5.97;;;4.00;;
1106;SDS011;540;49.448;8.612;2024-03-22T11:48:13;5.03;;;3.45;;
1106;SDS011;540;49.448;8.612;2024-03-22T11:50:40;4.93;;;3.78;;
1106;SDS011;540;49.448;8.612;2024-03-22T11:53:07;4.60;;;3.50;;
1106;SDS011;540;49.448;8.612;2024-03-22T11:55:35;5.57;;;3.83;;
1106;SDS011;540;49.448;8.612;2024-03-22T11:58:01;5.97;;;3.63;;
1106;SDS011;540;49.448;8.612;2024-03-22T12:00:28;5.32;;;3.92;;
1106;SDS011;540;49.448;8.612;2024-03-22T12:02:55;8.00;;;4.05;;
1106;SDS011;540;49.448;8.612;2024-03-22T12:05:22;6.88;;;3.85;;
1106;SDS011;540;49.448;8.612;2024-03-22T12:07:51;6.63;;;3.90;;
1106;SDS011;540;49.448;8.612;2024-03-22T12:10:18;6.00;;;4.07;;
1106;SDS011;540;49.448;8.612;2024-03-22T12:12:45;6.68;;;4.53;;
1106;SDS011;540;49.448;8.612;2024-03-22T12:15:12;6.68;;;4.15;;
1106;SDS011;540;49.448;8.612;2024-03-22T12:17:39;4.85;;;3.35;;
1106;SDS011;540;49.448;8.612;2024-03-22T12:20:08;6.82;;;4.38;;
1106;SDS011;540;49.448;8.612;2024-03-22T12:22:35;6.63;;;4.28;;
1106;SDS011;540;49.448;8.612;2024-03-22T12:25:03;9.63;;;4.10;;
1106;SDS011;540;49.448;8.612;2024-03-22T12:27:30;4.60;;;3.38;;
1106;SDS011;540;49.448;8.612;2024-03-22T12:29:57;8.88;;;3.05;;
1106;SDS011;540;49.448;8.612;2024-03-22T12:32:24;6.18;;;3.53;;
1106;SDS011;540;49.448;8.612;2024-03-22T12:34:53;9.60;;;3.85;;
1106;SDS011;540;49.448;8.612;2024-03-22T12:37:19;6.50;;;3.83;;
1106;SDS011;540;49.448;8.612;2024-03-22T12:39:46;4.15;;;3.00;;
1106;SDS011;540;49.448;8.612;2024-03-22T12:42:14;7.93;;;3.40;;
1106;SDS011;540;49.448;8.612;2024-03-22T12:44:41;5.55;;;3.58;;
1106;SDS011;540;49.448;8.612;2024-03-22T12:47:06;4.95;;;3.10;;
1106;SDS011;540;49.448;8.612;2024-03-22T12:49:34;5.43;;;3.53;;
1106;SDS011;540;49.448;8.612;2024-03-22T12:51:59;4.75;;;3.58;;
1106;SDS011;540;49.448;8.612;2024-03-22T12:54:27;5.57;;;4.20;;
1106;SDS011;540;49.448;8.612;2024-03-22T12:56:53;5.35;;;3.70;;
1106;SDS011;540;49.448;8.612;2024-03-22T12:59:21;6.97;;;4.28;;
1106;SDS011;540;49.448;8.612;2024-03-22T13:01:47;6.18;;;4.28;;
1106;SDS011;540;49.448;8.612;2024-03-22T13:04:14;6.30;;;4.20;;
1106;SDS011;540;49.448;8.612;2024-03-22T13:06:40;8.52;;;4.65;;
1106;SDS011;540;49.448;8.612;2024-03-22T13:09:07;5.25;;;4.30;;
1106;SDS011;540;49.448;8.612;2024-03-22T13:11:34;7.22;;;3.95;;
1106;SDS011;540;49.448;8.612;2024-03-22T13:14:04;8.52;;;4.57;;
1106;SDS011;540;49.448;8.612;2024-03-22T13:16:32;7.95;;;3.95;;
1106;SDS011;540;49.448;8.612;2024-03-22T13:18:59;8.60;;;4.63;;
1106;SDS011;540;49.448;8.612;2024-03-22T13:21:25;5.82;;;4.40;;
1106;SDS011;540;49.448;8.612;2024-03-22T13:23:53;12.50;;;4.28;;
1106;SDS011;540;49.448;8.612;2024-03-22T13:26:20;7.15;;;4.78;;
1106;SDS011;540;49.448;8.612;2024-03-22T13:28:47;7.47;;;4.45;;
1106;SDS011;540;49.448;8.612;2024-03-22T13:31:13;5.10;;;3.72;;
1106;SDS011;540;49.448;8.612;2024-03-22T13:33:42;5.57;;;4.03;;
1106;SDS011;540;49.448;8.612;2024-03-22T13:36:08;6.70;;;4.05;;
1106;SDS011;540;49.448;8.612;2024-03-22T13:38:34;6.13;;;4.15;;
1106;SDS011;540;49.448;8.612;2024-03-22T13:41:00;4.30;;;3.17;;
1106;SDS011;540;49.448;8.612;2024-03-22T13:43:29;5.72;;;3.72;;
1106;SDS011;540;49.448;8.612;2024-03-22T13:46:00;5.32;;;3.65;;
1106;SDS011;540;49.448;8.612;2024-03-22T13:48:27;10.25;;;4.70;;
1106;SDS011;540;49.448;8.612;2024-03-22T13:50:54;6.05;;;3.40;;
1106;SDS011;540;49.448;8.612;2024-03-22T13:53:22;6.20;;;3.78;;
1106;SDS011;540;49.448;8.612;2024-03-22T13:55:48;5.72;;;3.90;;
1106;SDS011;540;49.448;8.612;2024-03-22T13:58:15;6.35;;;4.45;;
1106;SDS011;540;49.448;8.612;2024-03-22T14:00:41;6.63;;;3.90;;
1106;SDS011;540;49.448;8.612;2024-03-22T14:03:08;5.88;;;3.88;;
1106;SDS011;540;49.448;8.612;2024-03-22T14:05:35;4.95;;;3.60;;
1106;SDS011;540;49.448;8.612;2024-03-22T14:08:03;7.88;;;3.60;;
1106;SDS011;540;49.448;8.612;2024-03-22T14:10:30;6.53;;;3.58;;
1106;SDS011;540;49.448;8.612;2024-03-22T14:12:57;7.03;;;4.05;;
1106;SDS011;540;49.448;8.612;2024-03-22T14:15:23;6.97;;;4.25;;
1106;SDS011;540;49.448;8.612;2024-03-22T14:17:52;6.28;;;3.83;;
1106;SDS011;540;49.448;8.612;2024-03-22T14:20:18;5.50;;;3.47;;
1106;SDS011;540;49.448;8.612;2024-03-22T14:22:46;4.45;;;3.33;;
1106;SDS011;540;49.448;8.612;2024-03-22T14:25:14;5.28;;;3.78;;
1106;SDS011;540;49.448;8.612;2024-03-22T14:27:41;4.95;;;3.80;;
1106;SDS011;540;49.448;8.612;2024-03-22T14:30:10;4.22;;;3.17;;
1106;SDS011;540;49.448;8.612;2024-03-22T14:32:38;5.65;;;3.05;;
1106;SDS011;540;49.448;8.612;2024-03-22T14:35:05;5.13;;;3.20;;
1106;SDS011;540;49.448;8.612;2024-03-22T14:37:33;5.82;;;3.92;;
1106;SDS011;540;49.448;8.612;2024-03-22T14:39:59;6.20;;;3.25;;
1106;SDS011;540;49.448;8.612;2024-03-22T14:42:31;6.35;;;3.00;;
1106;SDS011;540;49.448;8.612;2024-03-22T14:44:57;6.85;;;3.63;;
1106;SDS011;540;49.448;8.612;2024-03-22T14:47:24;6.68;;;3.40;;
1106;SDS011;540;49.448;8.612;2024-03-22T14:49:50;4.07;;;3.20;;
1106;SDS011;540;49.448;8.612;2024-03-22T14:52:17;4.70;;;3.08;;
1106;SDS011;540;49.448;8.612;2024-03-22T14:54:43;6.05;;;3.58;;
1106;SDS011;540;49.448;8.612;2024-03-22T14:57:10;4.03;;;2.70;;
1106;SDS011;540;49.448;8.612;2024-03-22T14:59:41;6.82;;;3.20;;
1106;SDS011;540;49.448;8.612;2024-03-22T15:02:08;6.53;;;2.97;;
1106;SDS011;540;49.448;8.612;2024-03-22T15:04:34;4.85;;;3.15;;
1106;SDS011;540;49.448;8.612;2024-03-22T15:07:00;4.90;;;2.85;;
1106;SDS011;540;49.448;8.612;2024-03-22T15:09:26;5.35;;;3.03;;
1106;SDS011;540;49.448;8.612;2024-03-22T15:11:53;4.80;;;2.80;;
1106;SDS011;540;49.448;8.612;2024-03-22T15:14:20;6.30;;;3.10;;
1106;SDS011;540;49.448;8.612;2024-03-22T15:16:49;6.95;;;3.13;;
1106;SDS011;540;49.448;8.612;2024-03-22T15:19:15;10.02;;;7.57;;